createdAt,value
2019-04-11T00:01:44.713Z,9.30
2019-04-11T00:04:10.145Z,8.65
2019-04-11T00:06:39.840Z,8.75
2019-04-11T00:09:11.246Z,9.10
2019-04-11T00:11:41.956Z,9.08
2019-04-11T00:14:13.871Z,8.23
2019-04-11T00:16:43.668Z,8.50
2019-04-11T00:19:13.692Z,8.45
2019-04-11T00:21:44.619Z,7.72
2019-04-11T00:24:14.507Z,8.45
2019-04-11T00:26:44.450Z,7.95
2019-04-11T00:29:14.368Z,7.67
2019-04-11T00:31:43.891Z,7.37
2019-04-11T00:34:13.503Z,6.62
2019-04-11T00:36:42.936Z,6.78
2019-04-11T00:39:13.416Z,6.78
2019-04-11T00:41:43.341Z,6.80
2019-04-11T00:44:12.924Z,6.50
2019-04-11T00:46:42.633Z,6.17
2019-04-11T00:49:12.392Z,5.70
2019-04-11T00:51:42.316Z,5.70
2019-04-11T00:54:11.865Z,5.70
2019-04-11T00:56:42.272Z,5.15
2019-04-11T00:59:12.023Z,5.10
2019-04-11T01:01:43.008Z,5.05
2019-04-11T01:04:13.718Z,5.60
2019-04-11T01:06:44.425Z,5.15
2019-04-11T01:09:14.184Z,5.20
2019-04-11T01:11:43.715Z,4.78
2019-04-11T01:14:13.307Z,5.00
2019-04-11T01:16:50.761Z,4.92
2019-04-11T01:19:20.499Z,4.85
2019-04-11T01:21:50.991Z,4.72
2019-04-11T01:24:21.843Z,4.45
2019-04-11T01:26:51.867Z,4.25
2019-04-11T01:29:21.388Z,4.42
2019-04-11T01:31:55.502Z,4.58
2019-04-11T01:34:25.055Z,4.37
2019-04-11T01:36:55.479Z,3.92
2019-04-11T01:39:38.789Z,3.90
2019-04-11T01:42:09.130Z,3.90
2019-04-11T01:44:38.942Z,3.83
2019-04-11T01:47:10.825Z,3.70
2019-04-11T01:49:41.456Z,3.70
2019-04-11T01:52:11.894Z,3.70
2019-04-11T01:54:41.761Z,3.83
2019-04-11T01:57:11.762Z,3.98
2019-04-11T01:59:41.737Z,3.90
2019-04-11T02:02:17.086Z,3.77
2019-04-11T02:04:52.237Z,3.75
2019-04-11T02:07:22.607Z,3.60
2019-04-11T02:09:52.604Z,3.92
2019-04-11T02:12:23.375Z,3.30
2019-04-11T02:14:52.844Z,3.70
2019-04-11T02:17:22.472Z,2.90
2019-04-11T02:19:52.336Z,3.90
2019-04-11T02:22:35.188Z,2.92
2019-04-11T02:25:24.729Z,2.80
2019-04-11T02:27:56.013Z,2.70
2019-04-11T02:30:27.715Z,2.95
2019-04-11T02:32:58.310Z,2.67
2019-04-11T02:35:28.897Z,2.70
2019-04-11T02:37:59.238Z,2.40
2019-04-11T02:40:30.533Z,2.85
2019-04-11T02:43:01.318Z,3.02
2019-04-11T02:45:49.692Z,2.92
2019-04-11T02:48:04.037Z,2.65
2019-04-11T02:50:45.741Z,2.90
2019-04-11T02:53:16.967Z,2.40
2019-04-11T02:55:49.727Z,2.55
2019-04-11T02:58:20.590Z,2.80
2019-04-11T03:00:53.018Z,2.47
2019-04-11T03:03:23.247Z,2.60
2019-04-11T03:05:55.254Z,2.45
2019-04-11T03:08:26.972Z,2.50
2019-04-11T03:10:57.494Z,2.47
2019-04-11T03:13:27.296Z,2.40
2019-04-11T03:16:11.066Z,1.98
2019-04-11T03:18:46.087Z,2.17
2019-04-11T03:21:06.158Z,2.22
2019-04-11T03:23:33.235Z,2.12
2019-04-11T03:26:05.179Z,1.90
2019-04-11T03:28:36.446Z,1.95
2019-04-11T03:31:42.478Z,2.00
2019-04-11T03:39:05.698Z,2.05
2019-04-11T03:41:26.944Z,2.10
2019-04-11T03:43:54.099Z,1.80
2019-04-11T03:46:35.342Z,2.10
2019-04-11T03:48:59.983Z,2.02
2019-04-11T03:51:22.594Z,2.40
2019-04-11T03:53:53.598Z,2.52
2019-04-11T03:56:24.392Z,2.67
2019-04-11T03:58:55.442Z,2.72
2019-04-11T04:01:26.781Z,2.20
2019-04-11T04:03:58.352Z,2.17
2019-04-11T04:06:28.777Z,2.30
2019-04-11T04:09:00.719Z,2.10
2019-04-11T04:11:33.808Z,2.10
2019-04-11T04:14:15.445Z,2.15
2019-04-11T04:16:59.303Z,2.47
2019-04-11T04:19:37.129Z,2.72
2019-04-11T04:22:11.099Z,2.60
2019-04-11T04:24:42.639Z,2.40
2019-04-11T04:27:13.178Z,2.75
2019-04-11T04:29:46.783Z,2.37
2019-04-11T04:32:15.941Z,2.22
2019-04-11T04:34:46.409Z,2.30
2019-04-11T04:37:18.091Z,2.33
2019-04-11T04:39:48.098Z,2.42
2019-04-11T04:42:26.357Z,2.10
2019-04-11T04:44:50.940Z,2.55
2019-04-11T04:47:24.754Z,2.70
2019-04-11T04:49:52.369Z,2.30
2019-04-11T04:52:22.622Z,2.47
2019-04-11T04:54:52.863Z,3.12
2019-04-11T04:57:24.453Z,3.52
2019-04-11T04:59:55.534Z,2.95
2019-04-11T05:02:26.085Z,3.30
2019-04-11T05:05:06.698Z,3.30
2019-04-11T05:07:40.179Z,3.40
2019-04-11T05:10:08.917Z,3.12
2019-04-11T05:12:41.784Z,3.87
2019-04-11T05:15:21.548Z,3.70
2019-04-11T05:17:51.299Z,3.67
2019-04-11T05:20:21.890Z,3.60
2019-04-11T05:22:51.344Z,3.70
2019-04-11T05:25:20.821Z,3.47
2019-04-11T05:27:50.236Z,3.20
2019-04-11T05:30:19.782Z,3.75
2019-04-11T05:32:49.363Z,3.60
2019-04-11T05:35:20.059Z,5.85
2019-04-11T05:37:49.675Z,4.22
2019-04-11T05:40:19.162Z,3.90
2019-04-11T05:42:52.644Z,3.62
2019-04-11T05:45:22.616Z,3.90
2019-04-11T05:47:54.705Z,3.77
2019-04-11T05:50:28.461Z,4.00
2019-04-11T05:53:01.151Z,3.92
2019-04-11T05:55:32.053Z,4.20
2019-04-11T05:58:05.901Z,3.67
2019-04-11T06:00:49.557Z,3.83
2019-04-11T06:03:21.742Z,3.50
2019-04-11T06:05:58.293Z,4.15
2019-04-11T06:08:28.499Z,3.72
2019-04-11T06:11:04.630Z,3.90
2019-04-11T06:13:42.679Z,4.53
2019-04-11T06:16:13.027Z,3.52
2019-04-11T06:19:01.634Z,3.33
2019-04-11T06:21:33.902Z,8.73
2019-04-11T06:24:08.237Z,3.67
2019-04-11T06:26:42.867Z,3.08
2019-04-11T06:29:24.980Z,3.53
2019-04-11T06:31:57.045Z,3.70
2019-04-11T06:38:47.128Z,4.12
2019-04-11T06:41:24.394Z,4.40
2019-04-11T06:43:56.408Z,3.65
2019-04-11T06:46:52.345Z,6.95
2019-04-11T06:49:31.048Z,4.67
2019-04-11T06:52:05.791Z,4.00
2019-04-11T06:54:37.190Z,4.67
2019-04-11T06:57:09.715Z,3.60
2019-04-11T06:59:44.796Z,5.78
2019-04-11T07:02:19.700Z,3.92
2019-04-11T07:04:51.749Z,3.95
2019-04-11T07:07:26.872Z,3.45
2019-04-11T07:09:56.016Z,5.65
2019-04-11T07:12:33.045Z,11.68
2019-04-11T07:15:16.824Z,4.00
2019-04-11T07:18:07.146Z,3.27
2019-04-11T07:20:46.131Z,3.00
2019-04-11T07:23:33.507Z,4.45
2019-04-11T07:26:16.936Z,5.08
2019-04-11T07:28:48.206Z,3.85
2019-04-11T07:31:25.519Z,2.92
2019-04-11T07:34:11.915Z,2.65
2019-04-11T07:39:29.484Z,2.67
2019-04-11T07:42:13.719Z,3.08
2019-04-11T07:44:57.620Z,3.27
2019-04-11T07:47:29.449Z,2.70
2019-04-11T07:50:00.627Z,3.45
2019-04-11T07:52:33.291Z,2.98
2019-04-11T07:55:03.115Z,3.02
2019-04-11T07:57:49.645Z,3.27
2019-04-11T08:00:44.091Z,4.15
2019-04-11T08:03:44.718Z,3.55
2019-04-11T08:06:15.998Z,3.08
2019-04-11T08:08:47.171Z,3.12
2019-04-11T08:11:18.355Z,3.42
2019-04-11T08:14:02.199Z,5.28
2019-04-11T08:16:45.390Z,3.37
2019-04-11T08:19:20.988Z,3.62
2019-04-11T08:24:28.102Z,3.08
2019-04-11T08:27:07.682Z,3.33
2019-04-11T08:29:38.217Z,3.30
2019-04-11T08:32:12.078Z,3.10
2019-04-11T08:34:49.227Z,2.70
2019-04-11T08:37:27.485Z,2.65
2019-04-11T08:39:59.664Z,4.10
2019-04-11T08:42:37.783Z,2.80
2019-04-11T08:45:10.244Z,2.60
2019-04-11T08:47:47.007Z,3.10
2019-04-11T08:50:14.802Z,3.17
2019-04-11T08:52:48.827Z,4.15
2019-04-11T08:55:21.024Z,9.18
2019-04-11T08:57:52.178Z,12.55
2019-04-11T09:00:42.309Z,3.70
2019-04-11T09:03:36.012Z,2.92
2019-04-11T09:06:08.487Z,2.85
2019-04-11T09:08:56.935Z,3.00
2019-04-11T09:11:28.773Z,2.75
2019-04-11T09:14:16.409Z,2.83
2019-04-11T09:16:56.305Z,2.47
2019-04-11T09:19:27.838Z,2.77
2019-04-11T09:22:11.040Z,2.45
2019-04-11T09:24:43.120Z,2.33
2019-04-11T09:27:31.112Z,2.10
2019-04-11T09:30:15.868Z,2.87
2019-04-11T09:33:03.287Z,6.95
2019-04-11T09:35:52.395Z,2.50
2019-04-11T09:38:26.530Z,2.02
2019-04-11T09:41:14.370Z,2.15
2019-04-11T09:43:46.267Z,2.27
2019-04-11T09:46:26.571Z,2.20
2019-04-11T09:49:00.566Z,2.22
2019-04-11T09:51:31.837Z,2.20
2019-04-11T09:54:05.788Z,2.40
2019-04-11T09:56:39.739Z,2.55
2019-04-11T09:59:12.198Z,3.10
2019-04-11T10:01:43.429Z,2.90
2019-04-11T10:04:14.846Z,2.87
2019-04-11T10:06:46.574Z,2.15
2019-04-11T10:09:16.580Z,2.30
2019-04-11T10:12:04.535Z,3.40
2019-04-11T10:14:34.357Z,2.30
2019-04-11T10:17:25.990Z,2.00
2019-04-11T10:19:56.113Z,1.80
2019-04-11T10:22:29.186Z,1.65
2019-04-11T10:25:03.366Z,1.85
2019-04-11T10:27:53.100Z,1.72
2019-04-11T10:30:24.311Z,1.80
2019-04-11T10:33:11.421Z,1.60
2019-04-11T10:35:59.108Z,2.00
2019-04-11T10:38:28.776Z,2.12
2019-04-11T10:41:00.878Z,2.30
2019-04-11T10:43:32.335Z,7.65
2019-04-11T10:46:03.397Z,6.10
2019-04-11T10:48:47.470Z,5.70
2019-04-11T10:51:20.529Z,2.05
2019-04-11T10:53:51.939Z,1.82
2019-04-11T10:56:22.970Z,1.90
2019-04-11T10:58:53.792Z,1.85
2019-04-11T11:01:25.569Z,2.58
2019-04-11T11:03:58.960Z,2.00
2019-04-11T11:06:31.477Z,2.20
2019-04-11T11:09:03.673Z,2.25
2019-04-11T11:11:37.127Z,2.20
2019-04-11T11:14:12.361Z,1.75
2019-04-11T11:16:45.414Z,1.90
2019-04-11T11:19:37.158Z,2.10
2019-04-11T11:21:49.229Z,2.10
2019-04-11T11:24:29.377Z,3.92
2019-04-11T11:27:02.901Z,3.33
2019-04-11T11:29:31.945Z,2.87
2019-04-11T11:32:03.491Z,2.92
2019-04-11T11:34:37.047Z,3.22
2019-04-11T11:37:24.957Z,2.40
2019-04-11T11:40:15.001Z,2.10
2019-04-11T11:42:51.161Z,2.10
2019-04-11T11:45:28.348Z,2.10
2019-04-11T11:48:02.226Z,1.90
2019-04-11T11:50:34.524Z,2.45
2019-04-11T11:53:19.723Z,2.58
2019-04-11T11:55:50.250Z,2.37
2019-04-11T11:58:37.758Z,2.42
2019-04-11T12:01:09.424Z,9.40
2019-04-11T12:03:44.443Z,5.30
2019-04-11T12:06:16.956Z,3.90
2019-04-11T12:08:51.333Z,2.37
2019-04-11T12:11:24.096Z,1.92
2019-04-11T12:14:00.100Z,2.10
2019-04-11T12:16:34.687Z,2.10
2019-04-11T12:19:06.768Z,2.05
2019-04-11T12:21:38.827Z,2.12
2019-04-11T12:24:11.350Z,2.05
2019-04-11T12:26:44.685Z,1.90
2019-04-11T12:29:32.441Z,2.40
2019-04-11T12:32:04.080Z,2.37
2019-04-11T12:34:36.675Z,2.27
2019-04-11T12:37:08.507Z,3.05
2019-04-11T12:39:58.055Z,7.90
2019-04-11T12:42:29.188Z,3.60
2019-04-11T12:45:12.548Z,7.45
2019-04-11T12:47:42.743Z,5.90
2019-04-11T12:50:17.425Z,4.40
2019-04-11T12:52:51.426Z,2.90
2019-04-11T12:55:28.408Z,2.30
2019-04-11T12:58:05.613Z,2.22
2019-04-11T13:00:46.106Z,2.17
2019-04-11T13:03:34.050Z,1.90
2019-04-11T13:06:17.402Z,2.10
2019-04-11T13:09:03.772Z,2.42
2019-04-11T13:11:36.525Z,2.65
2019-04-11T13:14:17.006Z,2.30
2019-04-11T13:16:48.278Z,2.60
2019-04-11T13:19:35.677Z,2.87
2019-04-11T13:22:07.384Z,4.83
2019-04-11T13:24:55.244Z,3.55
2019-04-11T13:27:26.395Z,2.60
2019-04-11T13:30:00.206Z,2.40
2019-04-11T13:32:40.151Z,2.17
2019-04-11T13:35:27.834Z,2.40
2019-04-11T13:38:07.674Z,2.10
2019-04-11T13:40:44.875Z,2.05
2019-04-11T13:43:22.430Z,2.30
2019-04-11T13:45:53.714Z,2.30
2019-04-11T13:48:42.036Z,1.98
2019-04-11T13:51:26.079Z,1.87
2019-04-11T13:54:13.718Z,2.35
2019-04-11T13:57:00.043Z,2.12
2019-04-11T13:59:37.160Z,2.30
2019-04-11T14:02:14.743Z,2.00
2019-04-11T14:04:48.643Z,2.40
2019-04-11T14:07:21.284Z,2.22
2019-04-11T14:09:55.097Z,2.40
2019-04-11T14:12:29.031Z,11.10
2019-04-11T14:15:01.295Z,3.70
2019-04-11T14:17:45.565Z,2.80
2019-04-11T14:20:29.697Z,2.87
2019-04-11T14:23:05.848Z,2.30
2019-04-11T14:25:39.864Z,2.37
2019-04-11T14:28:13.822Z,2.70
2019-04-11T14:31:01.504Z,11.30
2019-04-11T14:33:35.562Z,7.62
2019-04-11T14:36:33.219Z,2.90
2019-04-11T14:38:57.609Z,2.70
2019-04-11T14:41:41.695Z,3.00
2019-04-11T14:44:15.787Z,6.40
2019-04-11T14:47:01.236Z,4.42
2019-04-11T14:49:42.445Z,2.30
2019-04-11T14:52:25.432Z,2.60
2019-04-11T14:54:55.019Z,4.45
2019-04-11T14:57:42.520Z,5.75
2019-04-11T15:00:16.651Z,2.65
2019-04-11T15:03:04.354Z,2.35
2019-04-11T15:05:38.495Z,2.22
2019-04-11T15:08:09.625Z,2.20
2019-04-11T15:10:55.751Z,7.35
2019-04-11T15:13:26.878Z,2.83
2019-04-11T15:16:14.239Z,2.30
2019-04-11T15:18:45.420Z,2.50
2019-04-11T15:21:16.541Z,2.50
2019-04-11T15:23:46.257Z,2.50
2019-04-11T15:26:17.358Z,2.67
2019-04-11T15:28:48.547Z,2.80
2019-04-11T15:31:39.124Z,3.10
2019-04-11T15:34:04.746Z,3.30
2019-04-11T15:36:35.759Z,2.65
2019-04-11T15:39:19.932Z,2.75
2019-04-11T15:41:53.773Z,3.00
2019-04-11T15:44:41.797Z,3.00
2019-04-11T15:47:12.853Z,3.00
2019-04-11T15:50:00.709Z,2.70
2019-04-11T15:52:31.014Z,2.90
2019-04-11T15:55:05.415Z,4.53
2019-04-11T15:57:37.360Z,4.22
2019-04-11T16:00:16.940Z,7.80
2019-04-11T16:02:51.084Z,9.53
2019-04-11T16:05:25.159Z,7.55
2019-04-11T16:07:56.372Z,4.05
2019-04-11T16:10:27.517Z,2.95
2019-04-11T16:13:07.367Z,3.30
2019-04-11T16:15:38.570Z,3.60
2019-04-11T16:18:21.291Z,4.20
2019-04-11T16:20:52.496Z,5.03
2019-04-11T16:23:41.499Z,4.12
2019-04-11T16:26:12.682Z,4.10
2019-04-11T16:28:55.992Z,4.03
2019-04-11T16:31:27.040Z,3.55
2019-04-11T16:33:58.192Z,3.50
2019-04-11T16:36:34.742Z,3.10
2019-04-11T16:39:20.614Z,3.77
2019-04-11T16:41:57.452Z,4.58
2019-04-11T16:44:46.157Z,6.33
2019-04-11T16:47:23.740Z,4.90
2019-04-11T16:49:56.762Z,3.70
2019-04-11T16:52:24.610Z,3.58
2019-04-11T16:54:53.948Z,3.65
2019-04-11T16:57:23.462Z,3.67
2019-04-11T16:59:52.938Z,5.10
2019-04-11T17:02:24.263Z,5.45
2019-04-11T17:04:55.669Z,4.20
2019-04-11T17:07:32.403Z,3.50
2019-04-11T17:10:07.875Z,3.55
2019-04-11T17:12:36.423Z,3.33
2019-04-11T17:15:08.329Z,3.87
2019-04-11T17:17:37.916Z,4.10
2019-04-11T17:20:07.701Z,6.85
2019-04-11T17:22:37.239Z,5.47
2019-04-11T17:25:06.848Z,9.03
2019-04-11T17:27:36.346Z,4.65
2019-04-11T17:30:08.001Z,4.03
2019-04-11T17:32:37.641Z,5.40
2019-04-11T17:35:07.597Z,4.67
2019-04-11T17:37:37.142Z,4.60
2019-04-11T17:40:07.698Z,4.15
2019-04-11T17:42:37.596Z,3.92
2019-04-11T17:45:07.458Z,4.70
2019-04-11T17:47:37.061Z,3.65
2019-04-11T17:50:07.916Z,4.47
2019-04-11T17:52:37.623Z,4.45
2019-04-11T17:55:07.482Z,5.30
2019-04-11T17:57:37.009Z,5.12
2019-04-11T18:00:09.820Z,8.05
2019-04-11T18:02:41.480Z,4.78
2019-04-11T18:05:17.121Z,4.40
2019-04-11T18:07:49.924Z,4.35
2019-04-11T18:10:19.151Z,4.25
2019-04-11T18:12:48.559Z,8.10
2019-04-11T18:15:17.991Z,4.67
2019-04-11T18:17:47.491Z,4.47
2019-04-11T18:20:18.151Z,5.20
2019-04-11T18:22:50.374Z,4.60
2019-04-11T18:25:21.038Z,4.25
2019-04-11T18:27:52.359Z,6.87
2019-04-11T18:30:23.291Z,8.10
2019-04-11T18:32:52.675Z,8.53
2019-04-11T18:35:22.390Z,6.42
2019-04-11T18:37:51.935Z,4.72
2019-04-11T18:40:22.418Z,4.08
2019-04-11T18:42:51.918Z,3.62
2019-04-11T18:45:21.565Z,4.60
2019-04-11T18:47:51.250Z,4.00
2019-04-11T18:50:22.917Z,4.05
2019-04-11T18:52:52.571Z,3.60
2019-04-11T18:55:22.211Z,4.35
2019-04-11T18:57:51.899Z,5.05
2019-04-11T19:00:23.966Z,4.47
2019-04-11T19:02:54.786Z,5.60
2019-04-11T19:05:28.905Z,5.40
2019-04-11T19:07:55.456Z,5.20
2019-04-11T19:10:26.564Z,5.45
2019-04-11T19:12:56.318Z,5.25
2019-04-11T19:15:25.966Z,4.70
2019-04-11T19:18:06.120Z,6.00
2019-04-11T19:20:26.689Z,6.20
2019-04-11T19:22:56.272Z,10.08
2019-04-11T19:25:25.961Z,7.30
2019-04-11T19:27:57.296Z,4.97
2019-04-11T19:30:27.059Z,7.67
2019-04-11T19:32:56.726Z,5.90
2019-04-11T19:35:26.286Z,8.90
2019-04-11T19:37:56.659Z,5.53
2019-04-11T19:40:26.232Z,5.25
2019-04-11T19:42:55.926Z,5.80
2019-04-11T19:45:25.783Z,5.00
2019-04-11T19:47:55.328Z,5.08
2019-04-11T19:50:26.707Z,5.40
2019-04-11T19:52:56.037Z,4.58
2019-04-11T19:55:34.773Z,5.53
2019-04-11T19:58:04.708Z,4.40
2019-04-11T20:00:35.398Z,6.87
2019-04-11T20:03:08.411Z,5.40
2019-04-11T20:05:37.247Z,10.38
2019-04-11T20:08:07.977Z,7.85
2019-04-11T20:10:37.539Z,6.42
2019-04-11T20:13:07.042Z,4.90
2019-04-11T20:15:50.564Z,5.28
2019-04-11T20:18:22.579Z,4.90
2019-04-11T20:20:52.284Z,4.37
2019-04-11T20:23:22.060Z,4.50
2019-04-11T20:25:51.545Z,4.60
2019-04-11T20:28:20.998Z,4.00
2019-04-11T20:30:50.541Z,4.30
2019-04-11T20:33:26.969Z,4.00
2019-04-11T20:35:52.472Z,3.95
2019-04-11T20:38:21.998Z,3.90
2019-04-11T20:40:53.281Z,4.60
2019-04-11T20:43:25.497Z,3.85
2019-04-11T20:45:54.102Z,3.85
2019-04-11T20:48:23.797Z,4.10
2019-04-11T20:50:53.361Z,4.20
2019-04-11T20:53:22.864Z,7.22
2019-04-11T20:55:52.331Z,11.03
2019-04-11T20:58:27.032Z,8.20
2019-04-11T21:00:55.706Z,7.53
2019-04-11T21:03:24.101Z,5.67
2019-04-11T21:05:53.677Z,5.78
2019-04-11T21:08:23.299Z,5.47
2019-04-11T21:10:52.843Z,7.37
2019-04-11T21:13:23.602Z,5.90
2019-04-11T21:15:55.507Z,5.60
2019-04-11T21:18:25.819Z,5.70
2019-04-11T21:20:56.081Z,5.83
2019-04-11T21:23:29.441Z,4.92
2019-04-11T21:25:58.886Z,4.95
2019-04-11T21:28:30.207Z,5.20
2019-04-11T21:31:00.734Z,5.28
2019-04-11T21:33:34.002Z,5.15
2019-04-11T21:36:02.070Z,5.37
2019-04-11T21:38:31.885Z,5.72
2019-04-11T21:41:05.833Z,5.50
2019-04-11T21:43:35.899Z,5.78
2019-04-11T21:46:06.867Z,5.70
2019-04-11T21:48:36.054Z,5.62
2019-04-11T21:51:06.357Z,5.70
2019-04-11T21:53:36.951Z,5.40
2019-04-11T21:56:06.789Z,4.60
2019-04-11T21:58:36.320Z,4.55
2019-04-11T22:01:08.833Z,4.12
2019-04-11T22:03:38.864Z,4.20
2019-04-11T22:06:08.479Z,4.03
2019-04-11T22:08:38.042Z,4.03
2019-04-11T22:11:09.875Z,4.30
2019-04-11T22:13:40.473Z,4.10
2019-04-11T22:16:13.152Z,4.20
2019-04-11T22:18:41.492Z,4.50
2019-04-11T22:21:12.989Z,4.10
2019-04-11T22:23:48.596Z,4.22
2019-04-11T22:26:13.340Z,3.90
2019-04-11T22:28:43.039Z,3.92
2019-04-11T22:31:12.573Z,3.98
2019-04-11T22:33:46.625Z,3.80
2019-04-11T22:36:16.073Z,3.72
2019-04-11T22:38:45.504Z,3.70
2019-04-11T22:41:14.938Z,4.00
2019-04-11T22:43:44.415Z,3.65
2019-04-11T22:46:20.475Z,3.75
2019-04-11T22:48:44.896Z,3.87
2019-04-11T22:51:14.781Z,3.17
2019-04-11T22:53:44.273Z,3.60
2019-04-11T22:56:13.844Z,4.00
2019-04-11T22:58:44.499Z,3.70
2019-04-11T23:01:16.538Z,4.87
2019-04-11T23:03:53.011Z,4.85
2019-04-11T23:06:22.506Z,4.03
2019-04-11T23:08:51.905Z,4.10
2019-04-11T23:11:21.568Z,3.92
2019-04-11T23:13:51.161Z,4.03
2019-04-11T23:16:20.816Z,3.65
2019-04-11T23:18:50.418Z,3.10
2019-04-11T23:21:29.483Z,3.55
2019-04-11T23:24:11.331Z,3.83
2019-04-11T23:26:31.101Z,3.42
2019-04-11T23:29:00.484Z,3.58
2019-04-11T23:31:30.004Z,3.37
2019-04-11T23:33:59.412Z,3.30
2019-04-11T23:36:28.831Z,3.00
2019-04-11T23:38:58.319Z,3.27
2019-04-11T23:41:27.871Z,3.10
2019-04-11T23:43:57.509Z,3.12
2019-04-11T23:46:27.116Z,2.98
2019-04-11T23:48:56.689Z,3.30
2019-04-11T23:51:26.557Z,3.40
2019-04-11T23:54:23.036Z,3.10
2019-04-11T23:56:47.325Z,3.37
2019-04-11T23:59:16.878Z,3.20
